Time;durP1;ratioP1;P1;durP2;ratioP2;P2;SDS_P1;SDS_P2;PMS_P1;PMS_P2;Temp;Humidity;BMP_temperature;BMP_pressure;BME280_temperature;BME280_humidity;BME280_pressure;Samples;Min_cycle;Max_cycle;Signal;HPM_P1;HPM_P2
2022/12/12 00:00:30;;;;;;;;;;;;;;;;;;5029926;28;19928;-76
2022/12/12 00:02:56;;;;;;;;;;;;;;;;;;5029836;28;19972;-76
2022/12/12 00:05:23;;;;;;;;;;;;;;;;;;5031325;28;19944;-75
2022/12/12 00:07:49;;;;;;;;;;;;;;;;;;5030361;28;19918;-76
2022/12/12 00:10:14;;;;;;;;;;;;;;;;;;5028430;28;19923;-76
2022/12/12 00:12:42;;;;;;;;;;;;;;;;;;5031276;28;19924;-76
2022/12/12 00:15:08;;;;;;;;;;;;;;;;;;5029606;28;20340;-76
2022/12/12 00:17:35;;;;;;;;;;;;;;;;;;5027927;28;20404;-76
2022/12/12 00:20:05;;;;;;;;;;;;;;;;;;5031255;28;19980;-76
2022/12/12 00:22:33;;;;;;;;;;;;;;;;;;5030016;28;19932;-76
2022/12/12 00:24:58;;;;;;;;;;;;;;;;;;5029524;28;19925;-76
2022/12/12 00:27:24;;;;;;;;;;;;;;;;;;5027828;28;19917;-75
2022/12/12 00:29:53;;;;;;;;;;;;;;;;;;5032441;28;20307;-77
2022/12/12 00:32:20;;;;;;;;;;;;;;;;;;5046216;28;19921;-76
2022/12/12 00:34:46;;;;;;;;;;;;;;;;;;5035790;28;19992;-77
2022/12/12 00:37:13;;;;;;;;;;;;;;;;;;5039816;28;20303;-76
2022/12/12 00:39:39;;;;;;;;;;;;;;;;;;5030393;28;19971;-75
2022/12/12 00:42:04;;;;;;;;;;;;;;;;;;5045908;28;19963;-75
2022/12/12 00:44:29;;;;;;;;;;;;;;;;;;5030586;28;19917;-76
2022/12/12 00:46:54;;;;;;;;;;;;;;;;;;5028747;28;19913;-76
2022/12/12 00:49:20;;;;;;;;;;;;;;;;;;5030433;28;20361;-75
2022/12/12 00:51:45;;;;;;;;;;;;;;;;;;5045642;28;19913;-75
2022/12/12 00:54:13;;;;;;;;;;;;;;;;;;5045591;28;19924;-76
2022/12/12 00:56:39;;;;;;;;;;;;;;;;;;5030012;28;19913;-75
2022/12/12 00:59:04;;;;;;;;;;;;;;;;;;5030332;28;19963;-75
2022/12/12 01:01:30;;;;;;;;;;;;;;;;;;5028695;28;19913;-75
2022/12/12 01:03:55;;;;;;;;;;;;;;;;;;5045632;28;19928;-75
2022/12/12 01:06:21;;;;;;;;;;;;;;;;;;5029555;28;19936;-75
2022/12/12 01:08:49;;;;;;;;;;;;;;;;;;5029871;28;19920;-75
2022/12/12 01:11:14;;;;;;;;;;;;;;;;;;5030192;28;20020;-74
2022/12/12 01:13:41;;;;;;;;;;;;;;;;;;5030761;28;20351;-75
2022/12/12 01:16:07;;;;;;;;;;;;;;;;;;5029824;28;19956;-76
2022/12/12 01:18:33;;;;;;;;;;;;;;;;;;5029787;28;20074;-75
2022/12/12 01:20:58;;;;;;;;;;;;;;;;;;5029241;28;19967;-76
2022/12/12 01:23:23;;;;;;;;;;;;;;;;;;5029612;28;19927;-76
2022/12/12 01:25:51;;;;;;;;;;;;;;;;;;5044930;28;19928;-76
2022/12/12 01:28:19;;;;;;;;;;;;;;;;;;5028539;28;19925;-76
2022/12/12 01:30:46;;;;;;;;;;;;;;;;;;5045623;28;20326;-76
2022/12/12 01:33:12;;;;;;;;;;;;;;;;;;5045298;28;19921;-76
2022/12/12 01:35:37;;;;;;;;;;;;;;;;;;5028455;28;19923;-77
2022/12/12 01:38:02;;;;;;;;;;;;;;;;;;5045204;28;20433;-76
2022/12/12 01:40:29;;;;;;;;;;;;;;;;;;5045077;28;19967;-76
2022/12/12 01:42:54;;;;;;;;;;;;;;;;;;5030099;28;20235;-76
2022/12/12 01:45:38;;;;;;;;;;;;;;;;;;5030289;28;19917;-76
2022/12/12 01:48:03;;;;;;;;;;;;;;;;;;5046313;28;19960;-76
2022/12/12 01:50:28;;;;;;;;;;;;;;;;;;5033311;28;19971;-76
2022/12/12 01:52:54;;;;;;;;;;;;;;;;;;5033910;28;20445;-76
2022/12/12 01:55:21;;;;;;;;;;;;;;;;;;5033593;28;19924;-76
2022/12/12 01:57:50;;;;;;;;;;;;;;;;;;5046865;28;19925;-76
2022/12/12 02:00:15;;;;;;;;;;;;;;;;;;5048603;28;19917;-76
2022/12/12 02:02:42;;;;;;;;;;;;;;;;;;5033751;28;20268;-76
2022/12/12 02:05:27;;;;;;;;;;;;;;;;;;5048684;28;20011;-75
2022/12/12 02:07:53;;;;;;;;;;;;;;;;;;5028619;28;19964;-76
2022/12/12 02:10:20;;;;;;;;;;;;;;;;;;5048571;28;19979;-76
2022/12/12 02:12:46;;;;;;;;;;;;;;;;;;5033113;28;20008;-76
2022/12/12 02:15:11;;;;;;;;;;;;;;;;;;5033149;28;19921;-75
2022/12/12 02:17:57;;;;;;;;;;;;;;;;;;5037106;28;19921;-76
2022/12/12 02:20:41;;;;;;;;;;;;;;;;;;5031246;28;19921;-76
2022/12/12 02:23:17;;;;;;;;;;;;;;;;;;5033020;28;20299;-75
2022/12/12 02:25:57;;;;;;;;;;;;;;;;;;5030337;28;19924;-74
2022/12/12 02:28:23;;;;;;;;;;;;;;;;;;5030750;28;19924;-75
2022/12/12 02:31:07;;;;;;;;;;;;;;;;;;5032595;28;19913;-76
2022/12/12 02:33:32;;;;;;;;;;;;;;;;;;5032390;28;19921;-76
2022/12/12 02:36:10;;;;;;;;;;;;;;;;;;5032352;28;19974;-76
2022/12/12 02:38:54;;;;;;;;;;;;;;;;;;5044520;28;20028;-74
2022/12/12 02:41:34;;;;;;;;;;;;;;;;;;5032858;28;19917;-74
2022/12/12 02:44:04;;;;;;;;;;;;;;;;;;5032307;28;19917;-75
2022/12/12 02:46:30;;;;;;;;;;;;;;;;;;5046913;28;19944;-74
2022/12/12 02:49:10;;;;;;;;;;;;;;;;;;5032323;28;20291;-74
2022/12/12 02:51:36;;;;;;;;;;;;;;;;;;5031245;28;19921;-76
2022/12/12 02:54:03;;;;;;;;;;;;;;;;;;5032241;28;19921;-76
2022/12/12 02:56:46;;;;;;;;;;;;;;;;;;5045686;28;19921;-76
2022/12/12 02:59:14;;;;;;;;;;;;;;;;;;5030351;28;20600;-76
2022/12/12 03:01:58;;;;;;;;;;;;;;;;;;5031591;28;19921;-76
2022/12/12 03:07:48;;;;;;;;;;;;;;;;;;5036712;28;19935;-77
2022/12/12 03:10:24;;;;;;;;;;;;;;;;;;5043330;28;19917;-75
2022/12/12 03:13:04;;;;;;;;;;;;;;;;;;5027801;28;20551;-76
2022/12/12 03:15:41;;;;;;;;;;;;;;;;;;5032326;28;19913;-74
2022/12/12 03:18:09;;;;;;;;;;;;;;;;;;5031743;28;19999;-75
2022/12/12 03:20:38;;;;;;;;;;;;;;;;;;5032576;28;20362;-76
2022/12/12 03:23:08;;;;;;;;;;;;;;;;;;5032118;28;19917;-75
2022/12/12 03:25:54;;;;;;;;;;;;;;;;;;5046914;28;20439;-76
2022/12/12 03:28:19;;;;;;;;;;;;;;;;;;5045646;28;19971;-75
2022/12/12 03:30:45;;;;;;;;;;;;;;;;;;5032207;28;19917;-76
2022/12/12 03:33:10;;;;;;;;;;;;;;;;;;5031984;28;19920;-76
2022/12/12 03:35:42;;;;;;;;;;;;;;;;;;5031556;28;19917;-75
2022/12/12 03:38:12;;;;;;;;;;;;;;;;;;5045756;28;19922;-76
2022/12/12 03:40:44;;;;;;;;;;;;;;;;;;5027439;28;19924;-75
2022/12/12 03:43:15;;;;;;;;;;;;;;;;;;5031685;28;20279;-76
2022/12/12 03:45:50;;;;;;;;;;;;;;;;;;5031532;28;19917;-76
2022/12/12 03:48:29;;;;;;;;;;;;;;;;;;5030235;28;20449;-75
2022/12/12 03:51:08;;;;;;;;;;;;;;;;;;5026356;28;19917;-75
2022/12/12 03:53:48;;;;;;;;;;;;;;;;;;5031250;28;20355;-76
2022/12/12 03:56:16;;;;;;;;;;;;;;;;;;5030636;28;19920;-75
2022/12/12 03:58:44;;;;;;;;;;;;;;;;;;5024404;28;20486;-74
2022/12/12 04:01:14;;;;;;;;;;;;;;;;;;5031071;28;20409;-74
2022/12/12 04:04:17;;;;;;;;;;;;;;;;;;5030696;28;19917;-76
2022/12/12 04:07:12;;;;;;;;;;;;;;;;;;4986683;28;19918;-75
2022/12/12 04:15:24;;;;;;;;;;;;;;;;;;5030876;28;19940;-76
2022/12/12 04:17:57;;;;;;;;;;;;;;;;;;5029424;28;20376;-76
2022/12/12 04:23:25;;;;;;;;;;;;;;;;;;5029286;28;19931;-76
2022/12/12 04:28:42;;;;;;;;;;;;;;;;;;5028279;28;20012;-77
2022/12/12 04:31:10;;;;;;;;;;;;;;;;;;5028560;28;19917;-75
2022/12/12 04:33:40;;;;;;;;;;;;;;;;;;5046097;28;19913;-76
2022/12/12 04:36:07;;;;;;;;;;;;;;;;;;5043476;28;20288;-75
2022/12/12 04:38:33;;;;;;;;;;;;;;;;;;5031259;28;20616;-74
2022/12/12 04:40:59;;;;;;;;;;;;;;;;;;5030140;28;19948;-74
2022/12/12 04:43:27;;;;;;;;;;;;;;;;;;5046288;28;19921;-76
2022/12/12 04:45:54;;;;;;;;;;;;;;;;;;5024883;28;19943;-74
2022/12/12 04:48:24;;;;;;;;;;;;;;;;;;5031930;28;19913;-76
2022/12/12 04:50:51;;;;;;;;;;;;;;;;;;5030018;28;19923;-74
2022/12/12 04:53:19;;;;;;;;;;;;;;;;;;5028034;28;19917;-76
2022/12/12 04:55:48;;;;;;;;;;;;;;;;;;5024531;28;19925;-75
2022/12/12 04:58:16;;;;;;;;;;;;;;;;;;5030327;28;19991;-76
2022/12/12 05:00:52;;;;;;;;;;;;;;;;;;5045725;28;20020;-76
2022/12/12 05:03:22;;;;;;;;;;;;;;;;;;5029453;28;20006;-75
2022/12/12 05:05:50;;;;;;;;;;;;;;;;;;5030251;28;19925;-75
2022/12/12 05:08:19;;;;;;;;;;;;;;;;;;5045506;28;19920;-76
2022/12/12 05:10:45;;;;;;;;;;;;;;;;;;5026789;28;19920;-76
2022/12/12 05:13:18;;;;;;;;;;;;;;;;;;5029062;28;19947;-75
2022/12/12 05:15:48;;;;;;;;;;;;;;;;;;5045984;28;20362;-75
2022/12/12 05:18:14;;;;;;;;;;;;;;;;;;5046133;28;19943;-76
2022/12/12 05:20:39;;;;;;;;;;;;;;;;;;5027358;28;19917;-77
2022/12/12 05:23:04;;;;;;;;;;;;;;;;;;5030616;28;19917;-76
2022/12/12 05:25:29;;;;;;;;;;;;;;;;;;5049407;28;19921;-76
2022/12/12 05:27:55;;;;;;;;;;;;;;;;;;5033273;28;19929;-76
2022/12/12 05:30:20;;;;;;;;;;;;;;;;;;5037268;28;19952;-76
2022/12/12 05:32:46;;;;;;;;;;;;;;;;;;5038789;28;19913;-74
2022/12/12 05:35:11;;;;;;;;;;;;;;;;;;5055742;28;19921;-76
2022/12/12 05:37:39;;;;;;;;;;;;;;;;;;5039410;28;19928;-76
2022/12/12 05:40:04;;;;;;;;;;;;;;;;;;5060509;28;19913;-76
2022/12/12 05:42:30;;;;;;;;;;;;;;;;;;5060570;28;19959;-77
2022/12/12 05:44:55;;;;;;;;;;;;;;;;;;5052906;28;20372;-76
2022/12/12 05:47:20;;;;;;;;;;;;;;;;;;5045472;28;19917;-76
2022/12/12 05:49:46;;;;;;;;;;;;;;;;;;5043837;28;19917;-75
2022/12/12 05:52:11;;;;;;;;;;;;;;;;;;5056731;28;20411;-74
2022/12/12 05:54:36;;;;;;;;;;;;;;;;;;5034810;28;19913;-76
2022/12/12 05:59:29;;;;;;;;;;;;;;;;;;5025200;28;19925;-60
2022/12/12 06:01:55;;;;;;;;;;;;;;;;;;5024401;28;19929;-60
2022/12/12 06:04:23;;;;;;;;;;;;;;;;;;5023894;28;19949;-61
2022/12/12 06:06:48;;;;;;;;;;;;;;;;;;5031190;28;19917;-61
2022/12/12 06:09:14;;;;;;;;;;;;;;;;;;5026007;28;20165;-61
2022/12/12 06:11:40;;;;;;;;;;;;;;;;;;5028324;28;19914;-59
2022/12/12 06:14:05;;;;;;;;;;;;;;;;;;5029532;28;19917;-59
2022/12/12 06:16:30;;;;;;;;;;;;;;;;;;5029835;28;20296;-60
2022/12/12 06:18:56;;;;;;;;;;;;;;;;;;5028272;28;19944;-61
2022/12/12 06:21:21;;;;;;;;;;;;;;;;;;5028077;28;20011;-60
2022/12/12 06:23:46;;;;;;;;;;;;;;;;;;5030403;28;20410;-60
2022/12/12 06:26:13;;;;;;;;;;;;;;;;;;5033994;28;19935;-60
2022/12/12 06:28:38;;;;;;;;;;;;;;;;;;5033052;28;20078;-60
2022/12/12 06:31:04;;;;;;;;;;;;;;;;;;5038984;28;19960;-60
2022/12/12 06:33:31;;;;;;;;;;;;;;;;;;5028454;28;19943;-61
2022/12/12 06:35:57;;;;;;;;;;;;;;;;;;5028636;28;19925;-60
2022/12/12 06:38:23;;;;;;;;;;;;;;;;;;5031721;28;19917;-60
2022/12/12 06:40:48;;;;;;;;;;;;;;;;;;5032958;28;19970;-60
2022/12/12 06:43:13;;;;;;;;;;;;;;;;;;5031417;28;20005;-60
2022/12/12 06:45:39;;;;;;;;;;;;;;;;;;5036869;28;19925;-61
2022/12/12 06:48:04;;;;;;;;;;;;;;;;;;5035724;28;19918;-61
2022/12/12 06:50:30;;;;;;;;;;;;;;;;;;5026507;28;20566;-61
2022/12/12 06:52:55;;;;;;;;;;;;;;;;;;5026761;28;19921;-61
2022/12/12 06:55:20;;;;;;;;;;;;;;;;;;5024333;28;19917;-62
2022/12/12 06:57:46;;;;;;;;;;;;;;;;;;5037043;28;19917;-61
2022/12/12 07:00:11;;;;;;;;;;;;;;;;;;5025829;28;19987;-61
2022/12/12 07:02:36;;;;;;;;;;;;;;;;;;5028694;28;20412;-62
2022/12/12 07:05:02;;;;;;;;;;;;;;;;;;5024563;28;19928;-60
2022/12/12 07:07:27;;;;;;;;;;;;;;;;;;5025972;28;19925;-62
2022/12/12 07:09:52;;;;;;;;;;;;;;;;;;5026557;28;20051;-61
2022/12/12 07:12:18;;;;;;;;;;;;;;;;;;5025861;28;19917;-61
2022/12/12 07:14:43;;;;;;;;;;;;;;;;;;5027567;28;19970;-61
2022/12/12 07:17:08;;;;;;;;;;;;;;;;;;5034117;28;19917;-60
2022/12/12 07:19:33;;;;;;;;;;;;;;;;;;5032436;28;20003;-62
2022/12/12 07:21:59;;;;;;;;;;;;;;;;;;5029989;28;20333;-61
2022/12/12 07:24:24;;;;;;;;;;;;;;;;;;5029896;28;19921;-59
2022/12/12 07:26:49;;;;;;;;;;;;;;;;;;5013807;28;20000;-61
2022/12/12 07:29:14;;;;;;;;;;;;;;;;;;5030944;28;19924;-61
2022/12/12 07:31:40;;;;;;;;;;;;;;;;;;5027337;28;19964;-61
2022/12/12 07:34:05;;;;;;;;;;;;;;;;;;5030329;28;19925;-62
2022/12/12 07:36:30;;;;;;;;;;;;;;;;;;5028512;28;19936;-60
2022/12/12 07:38:55;;;;;;;;;;;;;;;;;;5031962;28;19917;-60
2022/12/12 07:41:21;;;;;;;;;;;;;;;;;;5028938;28;19918;-61
2022/12/12 07:43:47;;;;;;;;;;;;;;;;;;5035278;28;19917;-62
2022/12/12 07:46:14;;;;;;;;;;;;;;;;;;5022650;28;19918;-60
2022/12/12 07:48:39;;;;;;;;;;;;;;;;;;5028859;28;19999;-61
2022/12/12 07:51:05;;;;;;;;;;;;;;;;;;5031499;28;20390;-61
2022/12/12 07:53:30;;;;;;;;;;;;;;;;;;5027163;28;19981;-60
2022/12/12 07:55:56;;;;;;;;;;;;;;;;;;5018709;28;19938;-62
2022/12/12 07:58:21;;;;;;;;;;;;;;;;;;5030565;28;19960;-60
2022/12/12 08:00:46;;;;;;;;;;;;;;;;;;5029245;28;20015;-61
2022/12/12 08:03:12;;;;;;;;;;;;;;;;;;5029602;28;19917;-60
2022/12/12 08:05:40;;;;;;;;;;;;;;;;;;5023204;28;19925;-60
2022/12/12 08:08:06;;;;;;;;;;;;;;;;;;5019861;28;19922;-60
2022/12/12 08:10:31;;;;;;;;;;;;;;;;;;5027728;28;20586;-61
2022/12/12 08:12:56;;;;;;;;;;;;;;;;;;5025999;28;19913;-61
2022/12/12 08:15:22;;;;;;;;;;;;;;;;;;5027235;28;20626;-61
2022/12/12 08:17:47;;;;;;;;;;;;;;;;;;5027177;28;19913;-61
2022/12/12 08:20:12;;;;;;;;;;;;;;;;;;5033980;28;19917;-61
2022/12/12 08:22:37;;;;;;;;;;;;;;;;;;5032762;28;19920;-60
2022/12/12 08:25:03;;;;;;;;;;;;;;;;;;5029639;28;19924;-62
2022/12/12 08:27:29;;;;;;;;;;;;;;;;;;5029782;28;20414;-60
2022/12/12 08:29:54;;;;;;;;;;;;;;;;;;5028530;28;20003;-60
2022/12/12 08:32:19;;;;;;;;;;;;;;;;;;5032236;28;20015;-60
2022/12/12 08:34:44;;;;;;;;;;;;;;;;;;5030010;28;19917;-63
2022/12/12 08:37:10;;;;;;;;;;;;;;;;;;5019838;28;19925;-59
2022/12/12 08:39:36;;;;;;;;;;;;;;;;;;5032167;28;19951;-62
2022/12/12 08:42:01;;;;;;;;;;;;;;;;;;5039063;28;20397;-60
2022/12/12 08:44:26;;;;;;;;;;;;;;;;;;5032906;28;19916;-60
2022/12/12 08:46:52;;;;;;;;;;;;;;;;;;5025769;28;20135;-61
2022/12/12 08:49:17;;;;;;;;;;;;;;;;;;5029522;28;19913;-62
2022/12/12 08:51:42;;;;;;;;;;;;;;;;;;5035072;28;19931;-60
2022/12/12 08:54:09;;;;;;;;;;;;;;;;;;5028217;28;20010;-60
2022/12/12 08:56:34;;;;;;;;;;;;;;;;;;5029197;28;19923;-60
2022/12/12 08:58:59;;;;;;;;;;;;;;;;;;5019674;28;19917;-61
2022/12/12 09:01:26;;;;;;;;;;;;;;;;;;5026538;28;20378;-59
2022/12/12 09:03:52;;;;;;;;;;;;;;;;;;5029151;28;20334;-60
2022/12/12 09:06:18;;;;;;;;;;;;;;;;;;5023007;28;19924;-59
2022/12/12 09:08:44;;;;;;;;;;;;;;;;;;5021743;28;19927;-60
2022/12/12 09:11:10;;;;;;;;;;;;;;;;;;5026362;28;19924;-60
2022/12/12 09:13:36;;;;;;;;;;;;;;;;;;5028424;28;19917;-61
2022/12/12 09:16:01;;;;;;;;;;;;;;;;;;5030336;28;19952;-61
2022/12/12 09:18:26;;;;;;;;;;;;;;;;;;5029588;28;20594;-60
2022/12/12 09:20:53;;;;;;;;;;;;;;;;;;5032546;28;19996;-62
2022/12/12 09:23:19;;;;;;;;;;;;;;;;;;5030069;28;19917;-61
2022/12/12 09:25:44;;;;;;;;;;;;;;;;;;5030606;28;20362;-60
2022/12/12 09:28:10;;;;;;;;;;;;;;;;;;5030493;28;19928;-60
2022/12/12 09:30:35;;;;;;;;;;;;;;;;;;5028390;28;19917;-61
2022/12/12 09:33:01;;;;;;;;;;;;;;;;;;5030224;28;19923;-61
2022/12/12 09:35:26;;;;;;;;;;;;;;;;;;5034652;28;20294;-61
2022/12/12 09:37:52;;;;;;;;;;;;;;;;;;5023829;28;19953;-62
2022/12/12 09:40:19;;;;;;;;;;;;;;;;;;5031250;28;20271;-60
2022/12/12 09:42:46;;;;;;;;;;;;;;;;;;5031477;28;19931;-61
2022/12/12 09:45:12;;;;;;;;;;;;;;;;;;5027699;28;19924;-61
2022/12/12 09:47:52;;;;;;;;;;;;;;;;;;5029831;28;19921;-60
2022/12/12 09:50:31;;;;;;;;;;;;;;;;;;5030934;28;20315;-59
2022/12/12 09:52:58;;;;;;;;;;;;;;;;;;5029141;28;19939;-63
2022/12/12 09:55:59;;;;;;;;;;;;;;;;;;5028896;28;19924;-62
2022/12/12 09:58:44;;;;;;;;;;;;;;;;;;4946023;28;20062;-62
2022/12/12 10:01:28;;;;;;;;;;;;;;;;;;5006923;28;19928;-63
2022/12/12 10:03:59;;;;;;;;;;;;;;;;;;5021643;28;20012;-62
2022/12/12 10:06:27;;;;;;;;;;;;;;;;;;5026713;28;19923;-62
2022/12/12 10:09:02;;;;;;;;;;;;;;;;;;5025069;28;20007;-64
2022/12/12 10:11:50;;;;;;;;;;;;;;;;;;5028534;28;20329;-62
2022/12/12 10:14:36;;;;;;;;;;;;;;;;;;5036750;28;19917;-63
2022/12/12 10:17:04;;;;;;;;;;;;;;;;;;5029975;28;19913;-60
2022/12/12 10:19:31;;;;;;;;;;;;;;;;;;5034197;28;19964;-63
2022/12/12 10:22:16;;;;;;;;;;;;;;;;;;5025927;28;20450;-62
2022/12/12 10:24:45;;;;;;;;;;;;;;;;;;5022658;28;19917;-60
2022/12/12 10:27:12;;;;;;;;;;;;;;;;;;5025873;28;19929;-61
2022/12/12 10:29:38;;;;;;;;;;;;;;;;;;5028310;28;19923;-61
2022/12/12 10:32:19;;;;;;;;;;;;;;;;;;5028996;28;19923;-61
2022/12/12 10:34:44;;;;;;;;;;;;;;;;;;5034023;28;19921;-61
2022/12/12 10:37:34;;;;;;;;;;;;;;;;;;5028176;28;19913;-61
2022/12/12 10:40:18;;;;;;;;;;;;;;;;;;5024851;28;20554;-62
2022/12/12 10:42:50;;;;;;;;;;;;;;;;;;5027415;28;19919;-61
2022/12/12 10:45:34;;;;;;;;;;;;;;;;;;5026327;28;19979;-62
2022/12/12 10:47:59;;;;;;;;;;;;;;;;;;5020381;28;19928;-61
2022/12/12 10:50:30;;;;;;;;;;;;;;;;;;5030952;28;19925;-61
2022/12/12 10:52:56;;;;;;;;;;;;;;;;;;5027352;28;19913;-61
2022/12/12 10:55:29;;;;;;;;;;;;;;;;;;5032409;28;20386;-61
2022/12/12 10:58:02;;;;;;;;;;;;;;;;;;5028288;28;19925;-60
2022/12/12 11:00:32;;;;;;;;;;;;;;;;;;5026397;28;19921;-62
2022/12/12 11:02:58;;;;;;;;;;;;;;;;;;5029228;28;19971;-61
2022/12/12 11:05:25;;;;;;;;;;;;;;;;;;5014209;28;19916;-61
2022/12/12 11:07:59;;;;;;;;;;;;;;;;;;5027615;28;19956;-62
2022/12/12 11:10:29;;;;;;;;;;;;;;;;;;5024967;28;20147;-61
2022/12/12 11:12:56;;;;;;;;;;;;;;;;;;5030488;28;19959;-63
2022/12/12 11:15:24;;;;;;;;;;;;;;;;;;5030435;28;19939;-62
2022/12/12 11:17:50;;;;;;;;;;;;;;;;;;5027146;28;19952;-62
2022/12/12 11:20:16;;;;;;;;;;;;;;;;;;5029977;28;19963;-62
2022/12/12 11:22:42;;;;;;;;;;;;;;;;;;5032051;28;19960;-62
2022/12/12 11:25:20;;;;;;;;;;;;;;;;;;5035826;28;19952;-62
2022/12/12 11:27:45;;;;;;;;;;;;;;;;;;5025455;28;19928;-62
2022/12/12 11:30:25;;;;;;;;;;;;;;;;;;5030570;28;20383;-62
2022/12/12 11:32:53;;;;;;;;;;;;;;;;;;5035882;28;20408;-63
2022/12/12 11:35:34;;;;;;;;;;;;;;;;;;5031033;28;20379;-62
2022/12/12 11:38:05;;;;;;;;;;;;;;;;;;5027416;28;20345;-61
2022/12/12 11:40:32;;;;;;;;;;;;;;;;;;5034523;28;19925;-63
2022/12/12 11:43:06;;;;;;;;;;;;;;;;;;5035463;28;19978;-63
2022/12/12 11:45:31;;;;;;;;;;;;;;;;;;5036113;28;20395;-63
2022/12/12 11:47:57;;;;;;;;;;;;;;;;;;5028206;28;19948;-62
2022/12/12 11:50:27;;;;;;;;;;;;;;;;;;5031304;28;20275;-63
2022/12/12 11:52:54;;;;;;;;;;;;;;;;;;5022043;28;19952;-63
2022/12/12 11:55:39;;;;;;;;;;;;;;;;;;5024662;28;20465;-63
2022/12/12 11:58:13;;;;;;;;;;;;;;;;;;5027318;28;19928;-66
2022/12/12 12:00:44;;;;;;;;;;;;;;;;;;5027408;28;19916;-63
2022/12/12 12:03:30;;;;;;;;;;;;;;;;;;5029327;28;19918;-63
2022/12/12 12:06:14;;;;;;;;;;;;;;;;;;5026781;28;19956;-63
2022/12/12 12:08:49;;;;;;;;;;;;;;;;;;5021088;28;19971;-63
2022/12/12 12:11:14;;;;;;;;;;;;;;;;;;5028070;28;19971;-63
2022/12/12 12:13:58;;;;;;;;;;;;;;;;;;5025793;28;19917;-63
2022/12/12 12:16:32;;;;;;;;;;;;;;;;;;5026678;28;19924;-64
2022/12/12 12:18:58;;;;;;;;;;;;;;;;;;5026607;28;19924;-63
2022/12/12 12:21:26;;;;;;;;;;;;;;;;;;5029428;28;19921;-64
2022/12/12 12:24:10;;;;;;;;;;;;;;;;;;5032178;28;19921;-65
2022/12/12 12:26:42;;;;;;;;;;;;;;;;;;5027202;28;19917;-63
2022/12/12 12:29:19;;;;;;;;;;;;;;;;;;5023749;28;20016;-65
2022/12/12 12:31:45;;;;;;;;;;;;;;;;;;5025068;28;20421;-64
2022/12/12 12:34:29;;;;;;;;;;;;;;;;;;5027912;28;19968;-63
2022/12/12 12:37:06;;;;;;;;;;;;;;;;;;5022646;28;19928;-63
2022/12/12 12:39:51;;;;;;;;;;;;;;;;;;5026873;28;19917;-64
2022/12/12 12:42:32;;;;;;;;;;;;;;;;;;5024687;28;19963;-65
2022/12/12 12:45:05;;;;;;;;;;;;;;;;;;5021345;28;20027;-63
2022/12/12 12:47:36;;;;;;;;;;;;;;;;;;5030741;28;20014;-65
2022/12/12 12:50:04;;;;;;;;;;;;;;;;;;5031247;28;20106;-63
2022/12/12 12:52:42;;;;;;;;;;;;;;;;;;5027994;28;19917;-64
2022/12/12 12:55:13;;;;;;;;;;;;;;;;;;5022484;28;19929;-61
2022/12/12 12:57:41;;;;;;;;;;;;;;;;;;5023870;28;20402;-64
2022/12/12 13:00:17;;;;;;;;;;;;;;;;;;5025537;28;19963;-67
2022/12/12 13:02:55;;;;;;;;;;;;;;;;;;5028150;28;19925;-63
2022/12/12 13:05:29;;;;;;;;;;;;;;;;;;5025400;28;20462;-64
2022/12/12 13:08:13;;;;;;;;;;;;;;;;;;5026633;28;19925;-64
2022/12/12 13:10:43;;;;;;;;;;;;;;;;;;5026697;28;20395;-62
2022/12/12 13:13:13;;;;;;;;;;;;;;;;;;5023232;28;19935;-62
2022/12/12 13:15:40;;;;;;;;;;;;;;;;;;5020098;28;19917;-63
2022/12/12 13:18:10;;;;;;;;;;;;;;;;;;5025430;28;20000;-65
2022/12/12 13:20:43;;;;;;;;;;;;;;;;;;5026097;28;19917;-64
2022/12/12 13:23:28;;;;;;;;;;;;;;;;;;5027254;28;19917;-62
2022/12/12 13:26:02;;;;;;;;;;;;;;;;;;5024495;28;20003;-63
2022/12/12 13:28:48;;;;;;;;;;;;;;;;;;5027585;28;19956;-63
2022/12/12 13:31:22;;;;;;;;;;;;;;;;;;5027351;28;19921;-63
2022/12/12 13:33:56;;;;;;;;;;;;;;;;;;5026736;28;19917;-65
2022/12/12 13:36:25;;;;;;;;;;;;;;;;;;5026005;28;19924;-62
2022/12/12 13:38:54;;;;;;;;;;;;;;;;;;5028964;28;19917;-62
2022/12/12 13:41:20;;;;;;;;;;;;;;;;;;5025871;28;20394;-63
2022/12/12 13:43:53;;;;;;;;;;;;;;;;;;5035669;28;19923;-63
2022/12/12 13:46:22;;;;;;;;;;;;;;;;;;5031739;28;19972;-65
2022/12/12 13:49:04;;;;;;;;;;;;;;;;;;5041302;28;21478;-61
2022/12/12 13:51:30;;;;;;;;;;;;;;;;;;5030540;28;20022;-61
2022/12/12 13:54:05;;;;;;;;;;;;;;;;;;5023504;28;20459;-63
2022/12/12 13:56:33;;;;;;;;;;;;;;;;;;5026786;28;20013;-62
2022/12/12 13:58:59;;;;;;;;;;;;;;;;;;5030815;28;19917;-63
2022/12/12 14:01:28;;;;;;;;;;;;;;;;;;5010634;28;19921;-62
2022/12/12 14:03:54;;;;;;;;;;;;;;;;;;5026843;28;20000;-62
2022/12/12 14:06:19;;;;;;;;;;;;;;;;;;5031070;28;19963;-63
2022/12/12 14:08:49;;;;;;;;;;;;;;;;;;5027870;28;19925;-62
2022/12/12 14:11:24;;;;;;;;;;;;;;;;;;5029993;28;20537;-62
2022/12/12 14:13:49;;;;;;;;;;;;;;;;;;5032024;28;19917;-62
2022/12/12 14:16:18;;;;;;;;;;;;;;;;;;5029604;28;19924;-63
2022/12/12 14:18:49;;;;;;;;;;;;;;;;;;5025743;28;19971;-62
2022/12/12 14:21:15;;;;;;;;;;;;;;;;;;5025579;28;19932;-62
2022/12/12 14:23:42;;;;;;;;;;;;;;;;;;5028553;28;19924;-63
2022/12/12 14:26:36;;;;;;;;;;;;;;;;;;5028320;28;19921;-63
2022/12/12 14:29:17;;;;;;;;;;;;;;;;;;4998372;28;19921;-63
2022/12/12 14:31:54;;;;;;;;;;;;;;;;;;5027813;28;19941;-63
2022/12/12 14:34:22;;;;;;;;;;;;;;;;;;5028925;28;19917;-62
2022/12/12 14:36:48;;;;;;;;;;;;;;;;;;5030838;28;19967;-64
2022/12/12 14:39:25;;;;;;;;;;;;;;;;;;5029381;28;19948;-64
2022/12/12 14:41:51;;;;;;;;;;;;;;;;;;5031108;28;20293;-64
2022/12/12 14:44:19;;;;;;;;;;;;;;;;;;5031607;28;19940;-63
2022/12/12 14:46:45;;;;;;;;;;;;;;;;;;5032909;28;19921;-63
2022/12/12 14:49:12;;;;;;;;;;;;;;;;;;5027502;28;20542;-61
2022/12/12 14:51:39;;;;;;;;;;;;;;;;;;5026441;28;19917;-63
2022/12/12 14:54:12;;;;;;;;;;;;;;;;;;5012146;28;20409;-63
2022/12/12 14:56:42;;;;;;;;;;;;;;;;;;5027756;28;19917;-62
2022/12/12 14:59:08;;;;;;;;;;;;;;;;;;5026354;28;20007;-62
2022/12/12 15:01:33;;;;;;;;;;;;;;;;;;5028900;28;20025;-62
2022/12/12 15:04:00;;;;;;;;;;;;;;;;;;5025448;28;20373;-64
2022/12/12 15:06:26;;;;;;;;;;;;;;;;;;5027214;28;19944;-63
2022/12/12 15:08:51;;;;;;;;;;;;;;;;;;5029450;28;19929;-63
2022/12/12 15:11:19;;;;;;;;;;;;;;;;;;5031562;28;20382;-64
2022/12/12 15:13:58;;;;;;;;;;;;;;;;;;5031675;28;19921;-65
2022/12/12 15:16:43;;;;;;;;;;;;;;;;;;5032040;28;19917;-65
2022/12/12 15:19:17;;;;;;;;;;;;;;;;;;5026367;28;19917;-63
2022/12/12 15:21:43;;;;;;;;;;;;;;;;;;5035247;28;19924;-62
2022/12/12 15:24:14;;;;;;;;;;;;;;;;;;5031936;28;19917;-64
2022/12/12 15:26:43;;;;;;;;;;;;;;;;;;5029924;28;19949;-63
2022/12/12 15:29:12;;;;;;;;;;;;;;;;;;5030035;28;19936;-62
2022/12/12 15:31:41;;;;;;;;;;;;;;;;;;5010352;28;20008;-62
2022/12/12 15:34:26;;;;;;;;;;;;;;;;;;5032634;28;19952;-62
2022/12/12 15:36:51;;;;;;;;;;;;;;;;;;5030934;28;20309;-63
2022/12/12 15:39:17;;;;;;;;;;;;;;;;;;5030826;28;19925;-62
2022/12/12 15:41:42;;;;;;;;;;;;;;;;;;5029943;28;19917;-62
2022/12/12 15:44:18;;;;;;;;;;;;;;;;;;5029983;28;19917;-62
2022/12/12 15:46:45;;;;;;;;;;;;;;;;;;5027724;28;19923;-66
2022/12/12 15:49:39;;;;;;;;;;;;;;;;;;5040303;28;19917;-64
2022/12/12 15:52:16;;;;;;;;;;;;;;;;;;5007949;28;19928;-64
2022/12/12 15:54:49;;;;;;;;;;;;;;;;;;5021907;28;19924;-63
2022/12/12 15:57:16;;;;;;;;;;;;;;;;;;5024134;28;19921;-64
2022/12/12 15:59:41;;;;;;;;;;;;;;;;;;5023936;28;19913;-62
2022/12/12 16:02:37;;;;;;;;;;;;;;;;;;5030012;28;20291;-63
2022/12/12 16:05:04;;;;;;;;;;;;;;;;;;5005605;28;20031;-62
2022/12/12 16:07:35;;;;;;;;;;;;;;;;;;5029462;28;19921;-63
2022/12/12 16:10:23;;;;;;;;;;;;;;;;;;5032665;28;19952;-64
2022/12/12 16:13:27;;;;;;;;;;;;;;;;;;5022005;28;20452;-63
2022/12/12 16:15:53;;;;;;;;;;;;;;;;;;4950712;28;19918;-64
2022/12/12 16:18:21;;;;;;;;;;;;;;;;;;4952890;28;19919;-62
2022/12/12 16:20:51;;;;;;;;;;;;;;;;;;4989476;28;19924;-63
2022/12/12 16:23:19;;;;;;;;;;;;;;;;;;5034105;28;19917;-63
2022/12/12 16:25:44;;;;;;;;;;;;;;;;;;5033235;28;20246;-63
2022/12/12 16:28:09;;;;;;;;;;;;;;;;;;5029815;28;19921;-62
2022/12/12 16:30:36;;;;;;;;;;;;;;;;;;5033079;28;19921;-64
2022/12/12 16:33:10;;;;;;;;;;;;;;;;;;5030615;28;20082;-63
2022/12/12 16:35:35;;;;;;;;;;;;;;;;;;5036127;28;19961;-62
2022/12/12 16:38:07;;;;;;;;;;;;;;;;;;5033337;28;19995;-62
2022/12/12 16:40:32;;;;;;;;;;;;;;;;;;5029497;28;19987;-63
2022/12/12 16:43:01;;;;;;;;;;;;;;;;;;5029525;28;20394;-63
2022/12/12 16:45:26;;;;;;;;;;;;;;;;;;5034310;28;19917;-63
2022/12/12 16:47:51;;;;;;;;;;;;;;;;;;5040120;28;19917;-62
2022/12/12 16:50:17;;;;;;;;;;;;;;;;;;5029577;28;19928;-64
2022/12/12 16:52:42;;;;;;;;;;;;;;;;;;5029295;28;19917;-62
2022/12/12 16:55:13;;;;;;;;;;;;;;;;;;5029460;28;20335;-62
2022/12/12 16:57:38;;;;;;;;;;;;;;;;;;5028163;28;20004;-63
2022/12/12 17:00:04;;;;;;;;;;;;;;;;;;5030588;28;20074;-63
2022/12/12 17:02:29;;;;;;;;;;;;;;;;;;5030421;28;19914;-62
2022/12/12 17:04:54;;;;;;;;;;;;;;;;;;5030883;28;19928;-61
2022/12/12 17:07:20;;;;;;;;;;;;;;;;;;5028059;28;20353;-61
2022/12/12 17:09:45;;;;;;;;;;;;;;;;;;5029838;28;19920;-61
2022/12/12 17:12:11;;;;;;;;;;;;;;;;;;5030537;28;19940;-63
2022/12/12 17:14:37;;;;;;;;;;;;;;;;;;5030975;28;20420;-61
2022/12/12 17:17:03;;;;;;;;;;;;;;;;;;5033824;28;19917;-61
2022/12/12 17:19:29;;;;;;;;;;;;;;;;;;5036118;28;19925;-61